createdAt,value
2022-11-14T00:01:07.860Z,6.24
2022-11-14T00:05:09.352Z,6.23
2022-11-14T00:09:10.598Z,6.23
2022-11-14T00:13:12.083Z,6.02
2022-11-14T00:17:13.345Z,6.05
2022-11-14T00:21:14.649Z,6.05
2022-11-14T00:25:15.971Z,6.08
2022-11-14T00:29:17.416Z,6.12
2022-11-14T00:33:20.687Z,6.15
2022-11-14T00:37:22.265Z,6.16
2022-11-14T00:41:23.844Z,6.17
2022-11-14T00:45:26.017Z,6.15
2022-11-14T00:49:27.359Z,6.16
2022-11-14T00:53:28.663Z,6.15
2022-11-14T00:57:29.989Z,6.12
2022-11-14T01:01:31.354Z,6.10
2022-11-14T01:05:32.697Z,6.06
2022-11-14T01:09:34.126Z,6.02
2022-11-14T01:13:35.415Z,5.96
2022-11-14T01:17:36.995Z,5.95
2022-11-14T01:21:38.265Z,5.99
2022-11-14T01:25:40.364Z,6.01
2022-11-14T01:29:41.594Z,6.05
2022-11-14T01:33:43.303Z,6.06
2022-11-14T01:37:44.535Z,6.06
2022-11-14T01:41:45.883Z,6.05
2022-11-14T01:45:57.916Z,6.07
2022-11-14T01:50:01.155Z,6.07
2022-11-14T01:54:05.719Z,6.05
2022-11-14T01:58:07.148Z,6.07
2022-11-14T02:02:12.995Z,6.09
2022-11-14T02:06:17.076Z,6.11
2022-11-14T02:10:20.203Z,6.12
2022-11-14T02:14:22.120Z,6.13
2022-11-14T02:18:23.419Z,6.12
2022-11-14T02:22:24.743Z,6.11
2022-11-14T02:26:25.987Z,6.12
2022-11-14T02:30:27.679Z,6.10
2022-11-14T02:34:29.454Z,6.09
2022-11-14T02:38:31.655Z,6.11
2022-11-14T02:42:33.264Z,6.10
2022-11-14T02:46:34.584Z,6.10
2022-11-14T02:50:35.979Z,6.12
2022-11-14T02:54:37.292Z,6.14
2022-11-14T02:58:38.544Z,6.14
2022-11-14T03:02:39.832Z,6.15
2022-11-14T03:06:41.175Z,6.16
2022-11-14T03:10:42.581Z,6.17
2022-11-14T03:14:43.843Z,6.19
2022-11-14T03:18:45.171Z,6.21
2022-11-14T03:22:46.400Z,6.24
2022-11-14T03:26:47.696Z,6.25
2022-11-14T03:30:48.955Z,6.24
2022-11-14T03:34:50.257Z,6.25
2022-11-14T03:38:51.485Z,6.28
2022-11-14T03:42:52.856Z,6.28
2022-11-14T03:46:54.203Z,6.31
2022-11-14T03:50:55.775Z,6.32
2022-11-14T03:54:57.011Z,6.32
2022-11-14T03:58:58.338Z,6.30
2022-11-14T04:02:59.772Z,6.29
2022-11-14T04:07:02.916Z,6.28
2022-11-14T04:11:04.304Z,6.27
2022-11-14T04:15:06.373Z,6.28
2022-11-14T04:19:07.737Z,6.29
2022-11-14T04:23:09.891Z,6.32
2022-11-14T04:27:11.193Z,6.32
2022-11-14T04:31:12.843Z,6.33
2022-11-14T04:35:14.366Z,6.33
2022-11-14T04:39:15.662Z,6.35
2022-11-14T04:43:17.392Z,6.36
2022-11-14T04:47:18.726Z,6.38
2022-11-14T04:51:20.195Z,6.38
2022-11-14T04:55:21.593Z,6.41
2022-11-14T04:59:22.879Z,6.40
2022-11-14T05:03:24.558Z,6.43
2022-11-14T05:07:25.945Z,6.44
2022-11-14T05:11:29.389Z,6.46
2022-11-14T05:15:30.912Z,6.48
2022-11-14T05:19:32.702Z,6.48
2022-11-14T05:23:34.007Z,6.51
2022-11-14T05:27:35.557Z,6.54
2022-11-14T05:31:36.834Z,6.56
2022-11-14T05:35:38.143Z,6.59
2022-11-14T05:39:39.413Z,6.60
2022-11-14T05:43:41.424Z,6.62
2022-11-14T05:47:42.680Z,6.64
2022-11-14T05:51:44.024Z,6.65
2022-11-14T05:55:45.280Z,6.69
2022-11-14T05:59:46.610Z,6.70
2022-11-14T06:03:48.418Z,6.70
2022-11-14T06:07:55.063Z,6.73
2022-11-14T06:11:56.286Z,6.77
2022-11-14T06:16:02.180Z,6.79
2022-11-14T06:20:03.651Z,6.81
2022-11-14T06:24:05.459Z,6.81
2022-11-14T06:28:06.834Z,6.84
2022-11-14T06:32:08.289Z,6.86
2022-11-14T06:36:10.001Z,6.89
2022-11-14T06:40:11.512Z,6.91
2022-11-14T06:44:14.891Z,6.91
2022-11-14T06:48:16.165Z,6.93
2022-11-14T06:52:17.410Z,6.96
2022-11-14T06:56:20.217Z,7.00
2022-11-14T07:00:21.895Z,7.04
2022-11-14T07:04:23.167Z,7.06
2022-11-14T07:08:24.441Z,7.09
2022-11-14T07:12:25.874Z,7.11
2022-11-14T07:16:31.279Z,7.13
2022-11-14T07:20:33.006Z,7.13
2022-11-14T07:24:35.080Z,7.18
2022-11-14T07:28:40.853Z,7.21
2022-11-14T07:32:42.144Z,7.23
2022-11-14T07:36:43.475Z,7.26
2022-11-14T07:40:58.138Z,7.30
2022-11-14T07:45:01.234Z,7.32
2022-11-14T07:49:02.640Z,7.35
2022-11-14T07:53:03.947Z,7.38
2022-11-14T07:57:05.183Z,7.40
2022-11-14T08:01:07.410Z,7.43
2022-11-14T08:05:09.006Z,7.45
2022-11-14T08:09:10.718Z,7.48
2022-11-14T08:17:33.427Z,7.56
2022-11-14T08:21:36.053Z,7.58
2022-11-14T08:25:37.358Z,7.61
2022-11-14T08:29:38.608Z,7.64
2022-11-14T08:33:39.883Z,7.67
2022-11-14T08:37:41.156Z,7.70
2022-11-14T08:41:42.414Z,7.72
2022-11-14T08:45:43.679Z,7.75
2022-11-14T08:49:45.312Z,7.77
2022-11-14T08:53:46.658Z,7.79
2022-11-14T08:57:49.591Z,7.84
2022-11-14T09:01:51.377Z,7.88
2022-11-14T09:05:53.208Z,7.93
2022-11-14T09:09:54.527Z,7.98
2022-11-14T09:13:56.091Z,8.01
2022-11-14T09:17:57.745Z,8.04
2022-11-14T09:21:59.884Z,8.05
2022-11-14T09:26:05.237Z,8.04
2022-11-14T09:30:06.736Z,8.04
2022-11-14T09:34:07.963Z,8.08
2022-11-14T09:38:11.030Z,8.12
2022-11-14T09:42:38.690Z,8.18
2022-11-14T09:46:42.492Z,8.25
2022-11-14T09:50:48.005Z,8.27
2022-11-14T09:54:52.350Z,8.29
2022-11-14T09:58:55.679Z,8.32
2022-11-14T10:03:03.147Z,8.32
2022-11-14T10:07:14.805Z,8.31
2022-11-14T10:11:23.100Z,8.33
2022-11-14T10:15:42.033Z,8.36
2022-11-14T10:19:46.538Z,8.36
2022-11-14T10:24:12.739Z,8.39
2022-11-14T10:28:26.216Z,8.45
2022-11-14T10:32:37.840Z,8.52
2022-11-14T10:36:59.573Z,8.58
2022-11-14T10:41:04.351Z,8.68
2022-11-14T10:45:23.982Z,8.77
2022-11-14T10:49:26.251Z,8.87
2022-11-14T10:53:27.522Z,8.92
2022-11-14T10:57:28.816Z,8.98
2022-11-14T11:01:40.968Z,9.05
2022-11-14T11:05:46.971Z,9.11
2022-11-14T11:10:16.162Z,9.16
2022-11-14T11:14:18.136Z,9.19
2022-11-14T11:18:25.647Z,9.23
2022-11-14T11:22:35.172Z,9.25
2022-11-14T11:26:36.505Z,9.27
2022-11-14T11:30:38.219Z,9.27
2022-11-14T11:34:40.110Z,9.32
2022-11-14T11:38:41.911Z,9.35
2022-11-14T11:47:22.541Z,9.50
2022-11-14T11:51:27.240Z,9.55
2022-11-14T11:55:49.408Z,9.67
2022-11-14T11:59:54.958Z,9.78
2022-11-14T12:03:56.322Z,9.87
2022-11-14T12:08:00.770Z,9.91
2022-11-14T12:12:05.224Z,9.95
2022-11-14T12:16:15.551Z,9.95
2022-11-14T12:20:28.276Z,10.05
2022-11-14T12:24:38.698Z,10.13
2022-11-14T12:28:40.158Z,10.24
2022-11-14T12:32:45.262Z,10.22
2022-11-14T12:36:46.743Z,10.32
2022-11-14T12:40:56.639Z,10.35
2022-11-14T12:44:58.326Z,10.23
2022-11-14T12:48:59.661Z,10.17
2022-11-14T12:53:00.987Z,10.20
2022-11-14T12:57:09.865Z,10.21
2022-11-14T13:01:14.222Z,10.20
2022-11-14T13:05:51.257Z,10.18
2022-11-14T13:10:02.673Z,10.06
2022-11-14T13:14:26.468Z,10.02
2022-11-14T13:18:46.587Z,10.01
2022-11-14T13:22:48.276Z,9.97
2022-11-14T13:26:51.125Z,9.97
2022-11-14T13:31:07.529Z,9.98
2022-11-14T13:35:15.756Z,9.97
2022-11-14T13:39:32.963Z,9.95
2022-11-14T13:43:34.596Z,9.93
2022-11-14T13:47:54.802Z,9.88
2022-11-14T13:51:56.287Z,9.84
2022-11-14T13:56:08.351Z,9.82
2022-11-14T14:00:20.104Z,9.77
2022-11-14T14:04:31.719Z,9.67
2022-11-14T14:08:55.558Z,9.58
2022-11-14T14:13:16.158Z,9.59
2022-11-14T14:17:17.404Z,9.53
2022-11-14T14:21:33.600Z,9.53
2022-11-14T14:25:40.936Z,9.54
2022-11-14T14:30:02.772Z,9.53
2022-11-14T14:34:19.863Z,9.52
2022-11-14T14:38:25.747Z,9.57
2022-11-14T14:42:34.801Z,9.59
2022-11-14T14:46:37.967Z,9.67
2022-11-14T14:50:48.076Z,9.72
2022-11-14T14:54:56.201Z,9.79
2022-11-14T14:58:57.557Z,9.82
2022-11-14T15:02:58.978Z,9.84
2022-11-14T15:07:00.403Z,9.89
2022-11-14T15:11:02.688Z,9.91
2022-11-14T15:15:04.445Z,9.92
2022-11-14T15:19:06.059Z,9.94
2022-11-14T15:23:10.366Z,9.93
2022-11-14T15:27:13.090Z,9.92
2022-11-14T15:31:21.888Z,9.91
2022-11-14T15:35:25.570Z,9.88
2022-11-14T15:39:27.957Z,9.84
2022-11-14T15:43:44.775Z,9.82
2022-11-14T15:47:46.167Z,9.79
2022-11-14T15:51:49.628Z,9.77
2022-11-14T15:55:51.224Z,9.74
2022-11-14T15:59:53.008Z,9.67
2022-11-14T16:03:54.307Z,9.64
2022-11-14T16:07:55.937Z,9.58
2022-11-14T16:11:57.295Z,9.54
2022-11-14T16:15:58.588Z,9.49
2022-11-14T16:19:59.886Z,9.45
2022-11-14T16:24:01.507Z,9.39
2022-11-14T16:28:02.975Z,9.35
2022-11-14T16:32:04.590Z,9.31
2022-11-14T16:36:06.669Z,9.27
2022-11-14T16:40:13.336Z,9.25
2022-11-14T16:44:18.687Z,9.23
2022-11-14T16:48:20.103Z,9.19
2022-11-14T16:52:21.393Z,9.19
2022-11-14T16:56:22.904Z,9.17
2022-11-14T17:00:24.315Z,9.15
2022-11-14T17:04:25.596Z,9.16
2022-11-14T17:08:26.875Z,9.11
2022-11-14T17:12:29.387Z,9.09
2022-11-14T17:16:30.752Z,9.08
2022-11-14T17:20:33.491Z,9.11
2022-11-14T17:24:34.762Z,9.09
2022-11-14T17:28:36.183Z,9.08
2022-11-14T17:32:37.480Z,9.09
2022-11-14T17:36:39.196Z,9.08
2022-11-14T17:40:40.607Z,9.11
2022-11-14T17:44:41.891Z,9.10
2022-11-14T17:48:43.673Z,9.09
2022-11-14T17:52:44.963Z,9.06
2022-11-14T17:56:50.982Z,9.03
2022-11-14T18:00:55.440Z,8.98
2022-11-14T18:04:56.724Z,8.96
2022-11-14T18:09:01.579Z,8.93
2022-11-14T18:13:04.935Z,8.90
2022-11-14T18:17:12.678Z,8.86
2022-11-14T18:21:15.944Z,8.82
2022-11-14T18:25:17.280Z,8.77
2022-11-14T18:29:18.832Z,8.76
2022-11-14T18:33:20.085Z,8.76
2022-11-14T18:37:22.405Z,8.75
2022-11-14T18:41:24.248Z,8.75
2022-11-14T18:45:25.474Z,8.72
2022-11-14T18:49:28.259Z,8.66
2022-11-14T18:53:33.345Z,8.69
2022-11-14T18:57:34.838Z,8.68
2022-11-14T19:01:36.171Z,8.72
2022-11-14T19:05:37.500Z,8.76
2022-11-14T19:09:39.306Z,8.79
2022-11-14T19:13:41.621Z,8.81
2022-11-14T19:17:43.159Z,8.85
2022-11-14T19:21:47.531Z,8.87
2022-11-14T19:25:48.788Z,9.14
2022-11-14T19:29:50.779Z,9.23
2022-11-14T19:33:52.072Z,9.22
2022-11-14T19:37:53.375Z,9.26
2022-11-14T19:41:54.644Z,9.25
2022-11-14T19:46:00.308Z,9.25
2022-11-14T19:50:01.627Z,9.24
2022-11-14T19:54:03.044Z,9.26
2022-11-14T19:58:04.300Z,9.31
2022-11-14T20:02:05.802Z,9.38
2022-11-14T20:06:14.804Z,9.49
2022-11-14T20:10:16.585Z,9.60
2022-11-14T20:14:18.043Z,9.83
2022-11-14T20:18:19.673Z,10.09
2022-11-14T20:22:20.994Z,10.35
2022-11-14T20:26:22.482Z,10.50
2022-11-14T20:30:24.004Z,10.64
2022-11-14T20:34:25.314Z,10.69
2022-11-14T20:38:28.228Z,10.72
2022-11-14T20:42:29.539Z,10.75
2022-11-14T20:46:30.976Z,10.75
2022-11-14T20:50:33.139Z,10.75
2022-11-14T20:54:34.423Z,10.78
2022-11-14T20:58:35.905Z,10.81
2022-11-14T21:02:37.210Z,10.85
2022-11-14T21:06:38.505Z,10.87
2022-11-14T21:10:46.881Z,10.88
2022-11-14T21:14:48.180Z,10.90
2022-11-14T21:18:51.999Z,10.94
2022-11-14T21:22:53.561Z,10.94
2022-11-14T21:26:54.788Z,10.94
2022-11-14T21:30:58.371Z,10.88
2022-11-14T21:34:59.615Z,10.87
2022-11-14T21:39:01.013Z,10.88
2022-11-14T21:43:02.604Z,10.89
2022-11-14T21:47:03.922Z,10.89
2022-11-14T21:51:21.738Z,10.88
2022-11-14T21:55:23.018Z,10.85
2022-11-14T21:59:27.384Z,10.85
2022-11-14T22:03:47.203Z,10.84
2022-11-14T22:07:48.699Z,10.82
2022-11-14T22:11:49.992Z,10.81
2022-11-14T22:15:51.249Z,10.83
2022-11-14T22:19:52.621Z,10.84
2022-11-14T22:23:54.956Z,10.85
2022-11-14T22:27:56.651Z,10.85
2022-11-14T22:31:57.870Z,10.86
2022-11-14T22:36:05.976Z,10.85
2022-11-14T22:40:07.612Z,10.86
2022-11-14T22:44:09.345Z,10.87
2022-11-14T22:48:10.631Z,10.88
2022-11-14T22:52:11.907Z,10.92
2022-11-14T22:56:13.630Z,10.95
2022-11-14T23:00:16.719Z,10.97
2022-11-14T23:04:18.036Z,11.00
2022-11-14T23:08:20.559Z,11.00
2022-11-14T23:12:21.992Z,11.02
2022-11-14T23:16:24.511Z,11.04
2022-11-14T23:20:26.375Z,11.07
2022-11-14T23:24:28.015Z,11.05
2022-11-14T23:28:30.750Z,11.05
2022-11-14T23:32:32.410Z,11.06
2022-11-14T23:36:33.699Z,11.10
2022-11-14T23:40:34.951Z,11.13
2022-11-14T23:44:36.302Z,11.11
2022-11-14T23:48:37.653Z,11.10
2022-11-14T23:52:38.895Z,11.07
2022-11-14T23:56:40.204Z,11.05
